PWSweather.com
Personal Weather Stations
Station Observations
UPSTATEWEATHER
Silver Leaf, Greer, SC 29650

Silver LeafGreer, SC 29650

Lat: 34.8955792, Lon: -82.2868211

Elevation: 875

Station Type: Davis Vantage Vue

https://www.upstateweather.com

High Low Average
Temperature 89.7°F32.1°C 68.2°F20.1°C 76.7°F24.8°C
Dew Point 68.8°F20.4°C 63.4°F17.4°C 66.2°F19.0°C
Winds 2.3 mph 3.7 kmh Calm Calm Calm NCalm N
Wind Gusts 3.5 mph5.6 kmh -- --
Humidity 91% 45% 72%
Pressure 29.94 in1013.9 mb 29.82 in1009.8 mb -
Precipitation 0.00 in0.0 mm - -
Hour Temp Dew Point Humidity Winds Wind Gusts Pressure Precip Precip Rate Daily Precip Total
12:00 AM 71.8°F22.1°C 65.0°F18.3°C 79% Calm Calm -- 29.92 in1013.2 mb - 0.00 in0.0 mm 0.00 in0.0 mm
12:15 AM 71.5°F21.9°C 65.0°F18.3°C 80% Calm Calm -- 29.92 in1013.2 mb - 0.00 in0.0 mm 0.00 in0.0 mm
12:30 AM 71.5°F21.9°C 65.0°F18.3°C 80% Calm Calm -- 29.92 in1013.2 mb - 0.00 in0.0 mm 0.00 in0.0 mm
12:45 AM 71.3°F21.8°C 65.1°F18.4°C 81% Calm Calm -- 29.92 in1013.2 mb - 0.00 in0.0 mm 0.00 in0.0 mm
01:00 AM 70.7°F21.5°C 64.9°F18.3°C 82% Calm Calm -- 29.92 in1013.2 mb - 0.00 in0.0 mm 0.00 in0.0 mm
01:15 AM 70.3°F21.3°C 64.6°F18.1°C 82% Calm Calm -- 29.92 in1013.2 mb - 0.00 in0.0 mm 0.00 in0.0 mm
01:30 AM 70.0°F21.1°C 64.9°F18.3°C 84% Calm Calm -- 29.91 in1012.9 mb - 0.00 in0.0 mm 0.00 in0.0 mm
01:45 AM 69.5°F20.8°C 64.8°F18.2°C 85% Calm Calm -- 29.91 in1012.9 mb - 0.00 in0.0 mm 0.00 in0.0 mm
02:00 AM 69.2°F20.7°C 64.5°F18.1°C 85% Calm Calm -- 29.91 in1012.9 mb - 0.00 in0.0 mm 0.00 in0.0 mm
02:15 AM 68.8°F20.4°C 64.8°F18.2°C 87% Calm Calm -- 29.90 in1012.5 mb - 0.00 in0.0 mm 0.00 in0.0 mm
02:30 AM 69.0°F20.6°C 64.7°F18.2°C 86% Calm Calm -- 29.90 in1012.5 mb - 0.00 in0.0 mm 0.00 in0.0 mm
02:45 AM 68.9°F20.5°C 64.8°F18.2°C 87% Calm Calm -- 29.90 in1012.5 mb - 0.00 in0.0 mm 0.00 in0.0 mm
03:00 AM 68.5°F20.3°C 64.5°F18.1°C 87% Calm Calm -- 29.90 in1012.5 mb - 0.00 in0.0 mm 0.00 in0.0 mm
03:15 AM 69.0°F20.6°C 64.9°F18.3°C 87% Calm Calm -- 29.90 in1012.5 mb - 0.00 in0.0 mm 0.00 in0.0 mm
03:30 AM 69.2°F20.7°C 64.8°F18.2°C 86% Calm Calm -- 29.90 in1012.5 mb - 0.00 in0.0 mm 0.00 in0.0 mm
03:45 AM 69.1°F20.6°C 64.7°F18.2°C 86% Calm Calm -- 29.90 in1012.5 mb - 0.00 in0.0 mm 0.00 in0.0 mm
04:00 AM 69.1°F20.6°C 65.1°F18.4°C 87% Calm Calm -- 29.90 in1012.5 mb - 0.00 in0.0 mm 0.00 in0.0 mm
04:15 AM 69.1°F20.6°C 65.1°F18.4°C 87% Calm Calm -- 29.90 in1012.5 mb - 0.00 in0.0 mm 0.00 in0.0 mm
04:30 AM 69.1°F20.6°C 65.1°F18.4°C 87% Calm Calm -- 29.91 in1012.9 mb - 0.00 in0.0 mm 0.00 in0.0 mm
04:45 AM 68.7°F20.4°C 65.3°F18.5°C 89% Calm Calm -- 29.90 in1012.5 mb - 0.00 in0.0 mm 0.00 in0.0 mm
05:00 AM 68.6°F20.3°C 65.2°F18.4°C 89% Calm Calm -- 29.91 in1012.9 mb - 0.00 in0.0 mm 0.00 in0.0 mm
05:15 AM 68.4°F20.2°C 65.0°F18.3°C 89% Calm Calm -- 29.91 in1012.9 mb - 0.00 in0.0 mm 0.00 in0.0 mm
05:30 AM 68.6°F20.3°C 65.2°F18.4°C 89% Calm Calm -- 29.91 in1012.9 mb - 0.00 in0.0 mm 0.00 in0.0 mm
05:45 AM 68.7°F20.4°C 65.3°F18.5°C 89% Calm Calm -- 29.91 in1012.9 mb - 0.00 in0.0 mm 0.00 in0.0 mm
06:00 AM 68.4°F20.2°C 65.4°F18.6°C 90% Calm Calm -- 29.91 in1012.9 mb - 0.00 in0.0 mm 0.00 in0.0 mm
06:15 AM 68.2°F20.1°C 65.2°F18.4°C 90% Calm Calm -- 29.92 in1013.2 mb - 0.00 in0.0 mm 0.00 in0.0 mm
06:30 AM 68.2°F20.1°C 65.2°F18.4°C 90% Calm Calm -- 29.92 in1013.2 mb - 0.00 in0.0 mm 0.00 in0.0 mm
06:45 AM 68.4°F20.2°C 65.4°F18.6°C 90% Calm Calm -- 29.92 in1013.2 mb - 0.00 in0.0 mm 0.00 in0.0 mm
07:00 AM 68.6°F20.3°C 65.8°F18.8°C 91% Calm Calm -- 29.93 in1013.5 mb - 0.00 in0.0 mm 0.00 in0.0 mm
07:15 AM 69.0°F20.6°C 66.0°F18.9°C 90% Calm Calm -- 29.93 in1013.5 mb - 0.00 in0.0 mm 0.00 in0.0 mm
07:30 AM 69.8°F21.0°C 66.7°F19.3°C 90% Calm Calm -- 29.93 in1013.5 mb - 0.00 in0.0 mm 0.00 in0.0 mm
07:45 AM 70.5°F21.4°C 67.1°F19.5°C 89% Calm Calm -- 29.93 in1013.5 mb - 0.00 in0.0 mm 0.00 in0.0 mm
08:00 AM 71.9°F22.2°C 67.8°F19.9°C 87% Calm Calm -- 29.93 in1013.5 mb - 0.00 in0.0 mm 0.00 in0.0 mm
08:15 AM 72.7°F22.6°C 68.2°F20.1°C 86% Calm Calm -- 29.93 in1013.5 mb - 0.00 in0.0 mm 0.00 in0.0 mm
08:30 AM 73.8°F23.2°C 68.6°F20.3°C 84% Calm Calm -- 29.94 in1013.9 mb - 0.00 in0.0 mm 0.00 in0.0 mm
08:45 AM 75.1°F23.9°C 68.8°F20.4°C 81% Calm Calm -- 29.93 in1013.5 mb - 0.00 in0.0 mm 0.00 in0.0 mm
09:00 AM 76.6°F24.8°C 67.7°F19.8°C 74% Calm Calm -- 29.93 in1013.5 mb - 0.00 in0.0 mm 0.00 in0.0 mm
09:15 AM 77.9°F25.5°C 68.5°F20.3°C 73% 1.2 mph N1.9 kmh N 2.3 mph3.7 kmh 29.94 in1013.9 mb - 0.00 in0.0 mm 0.00 in0.0 mm
09:30 AM 79.3°F26.3°C 68.2°F20.1°C 69% 1.2 mph N1.9 kmh N 1.2 mph1.9 kmh 29.93 in1013.5 mb - 0.00 in0.0 mm 0.00 in0.0 mm
09:45 AM 80.1°F26.7°C 67.7°F19.8°C 66% Calm Calm 2.3 mph3.7 kmh 29.93 in1013.5 mb - 0.00 in0.0 mm 0.00 in0.0 mm
10:00 AM 81.3°F27.4°C 68.4°F20.2°C 65% 1.2 mph N1.9 kmh N 3.5 mph5.6 kmh 29.93 in1013.5 mb - 0.00 in0.0 mm 0.00 in0.0 mm
10:15 AM 82.1°F27.8°C 68.7°F20.4°C 64% 1.2 mph N1.9 kmh N 3.5 mph5.6 kmh 29.93 in1013.5 mb - 0.00 in0.0 mm 0.00 in0.0 mm
10:30 AM 82.8°F28.2°C 68.5°F20.3°C 62% Calm Calm 1.2 mph1.9 kmh 29.93 in1013.5 mb - 0.00 in0.0 mm 0.00 in0.0 mm
10:45 AM 83.3°F28.5°C 67.9°F19.9°C 60% 1.2 mph N1.9 kmh N 1.2 mph1.9 kmh 29.93 in1013.5 mb - 0.00 in0.0 mm 0.00 in0.0 mm
11:00 AM 82.1°F27.8°C 68.3°F20.2°C 63% Calm Calm -- 29.92 in1013.2 mb - 0.00 in0.0 mm 0.00 in0.0 mm
11:15 AM 81.7°F27.6°C 67.4°F19.7°C 62% Calm Calm 1.2 mph1.9 kmh 29.92 in1013.2 mb - 0.00 in0.0 mm 0.00 in0.0 mm
11:30 AM 81.7°F27.6°C 67.4°F19.7°C 62% Calm Calm -- 29.92 in1013.2 mb - 0.00 in0.0 mm 0.00 in0.0 mm
11:45 AM 84.0°F28.9°C 67.1°F19.5°C 57% 2.3 mph N3.7 kmh N 2.3 mph3.7 kmh 29.91 in1012.9 mb - 0.00 in0.0 mm 0.00 in0.0 mm
12:00 PM 84.8°F29.3°C 68.4°F20.2°C 58% 1.2 mph N1.9 kmh N 1.2 mph1.9 kmh 29.90 in1012.5 mb - 0.00 in0.0 mm 0.00 in0.0 mm
12:15 PM 85.1°F29.5°C 67.1°F19.5°C 55% 1.2 mph N1.9 kmh N 2.3 mph3.7 kmh 29.90 in1012.5 mb - 0.00 in0.0 mm 0.00 in0.0 mm
12:30 PM 84.2°F29.0°C 67.8°F19.9°C 58% Calm Calm 1.2 mph1.9 kmh 29.89 in1012.2 mb - 0.00 in0.0 mm 0.00 in0.0 mm
12:45 PM 83.4°F28.6°C 67.6°F19.8°C 59% 1.2 mph N1.9 kmh N 1.2 mph1.9 kmh 29.88 in1011.9 mb - 0.00 in0.0 mm 0.00 in0.0 mm
01:00 PM 84.2°F29.0°C 67.3°F19.6°C 57% Calm Calm -- 29.87 in1011.5 mb - 0.00 in0.0 mm 0.00 in0.0 mm
01:15 PM 85.2°F29.6°C 66.2°F19.0°C 53% Calm Calm 1.2 mph1.9 kmh 29.86 in1011.2 mb - 0.00 in0.0 mm 0.00 in0.0 mm
01:30 PM 86.9°F30.5°C 66.0°F18.9°C 50% 1.2 mph N1.9 kmh N -- 29.86 in1011.2 mb - 0.00 in0.0 mm 0.00 in0.0 mm
01:45 PM 87.6°F30.9°C 66.7°F19.3°C 50% 1.2 mph N1.9 kmh N 2.3 mph3.7 kmh 29.85 in1010.8 mb - 0.00 in0.0 mm 0.00 in0.0 mm
02:00 PM 87.5°F30.8°C 66.5°F19.2°C 50% Calm Calm -- 29.85 in1010.8 mb - 0.00 in0.0 mm 0.00 in0.0 mm
02:15 PM 86.6°F30.3°C 66.3°F19.1°C 51% Calm Calm -- 29.84 in1010.5 mb - 0.00 in0.0 mm 0.00 in0.0 mm
02:30 PM 87.5°F30.8°C 66.6°F19.2°C 50% Calm Calm 1.2 mph1.9 kmh 29.84 in1010.5 mb - 0.00 in0.0 mm 0.00 in0.0 mm
02:45 PM 87.8°F31.0°C 65.7°F18.7°C 48% Calm Calm 2.3 mph3.7 kmh 29.83 in1010.2 mb - 0.00 in0.0 mm 0.00 in0.0 mm
03:00 PM 89.7°F32.1°C 65.5°F18.6°C 45% Calm Calm -- 29.83 in1010.2 mb - 0.00 in0.0 mm 0.00 in0.0 mm
03:15 PM 88.3°F31.3°C 64.9°F18.3°C 46% 1.2 mph N1.9 kmh N 1.2 mph1.9 kmh 29.82 in1009.8 mb - 0.00 in0.0 mm 0.00 in0.0 mm
03:30 PM 89.0°F31.7°C 65.5°F18.6°C 46% Calm Calm 1.2 mph1.9 kmh 29.82 in1009.8 mb - 0.00 in0.0 mm 0.00 in0.0 mm
03:45 PM 88.5°F31.4°C 65.7°F18.7°C 47% 1.2 mph N1.9 kmh N 1.2 mph1.9 kmh 29.82 in1009.8 mb - 0.00 in0.0 mm 0.00 in0.0 mm
04:00 PM 87.3°F30.7°C 68.0°F20.0°C 53% Calm Calm -- 29.82 in1009.8 mb - 0.00 in0.0 mm 0.00 in0.0 mm
04:15 PM 86.4°F30.2°C 67.8°F19.9°C 54% Calm Calm -- 29.82 in1009.8 mb - 0.00 in0.0 mm 0.00 in0.0 mm
04:30 PM 85.9°F29.9°C 66.2°F19.0°C 52% Calm Calm -- 29.82 in1009.8 mb - 0.00 in0.0 mm 0.00 in0.0 mm
04:45 PM 85.7°F29.8°C 64.9°F18.3°C 50% Calm Calm -- 29.82 in1009.8 mb - 0.00 in0.0 mm 0.00 in0.0 mm
05:00 PM 85.5°F29.7°C 67.0°F19.4°C 54% Calm Calm -- 29.82 in1009.8 mb - 0.00 in0.0 mm 0.00 in0.0 mm
05:15 PM 85.1°F29.5°C 67.1°F19.5°C 55% Calm Calm -- 29.83 in1010.2 mb - 0.00 in0.0 mm 0.00 in0.0 mm
05:30 PM 84.3°F29.1°C 66.9°F19.4°C 56% Calm Calm -- 29.82 in1009.8 mb - 0.00 in0.0 mm 0.00 in0.0 mm
05:45 PM 83.3°F28.5°C 66.5°F19.2°C 57% Calm Calm -- 29.83 in1010.2 mb - 0.00 in0.0 mm 0.00 in0.0 mm
06:00 PM 82.9°F28.3°C 65.6°F18.7°C 56% Calm Calm -- 29.83 in1010.2 mb - 0.00 in0.0 mm 0.00 in0.0 mm
06:15 PM 82.3°F27.9°C 66.5°F19.2°C 59% Calm Calm -- 29.83 in1010.2 mb - 0.00 in0.0 mm 0.00 in0.0 mm
06:30 PM 81.0°F27.2°C 66.3°F19.1°C 61% Calm Calm -- 29.84 in1010.5 mb - 0.00 in0.0 mm 0.00 in0.0 mm
06:45 PM 79.5°F26.4°C 66.7°F19.3°C 65% Calm Calm -- 29.84 in1010.5 mb - 0.00 in0.0 mm 0.00 in0.0 mm
07:00 PM 78.1°F25.6°C 66.2°F19.0°C 67% Calm Calm -- 29.84 in1010.5 mb - 0.00 in0.0 mm 0.00 in0.0 mm
07:15 PM 77.7°F25.4°C 66.3°F19.1°C 68% Calm Calm -- 29.84 in1010.5 mb - 0.00 in0.0 mm 0.00 in0.0 mm
07:30 PM 77.4°F25.2°C 66.9°F19.4°C 70% Calm Calm -- 29.84 in1010.5 mb - 0.00 in0.0 mm 0.00 in0.0 mm
07:45 PM 77.1°F25.1°C 66.9°F19.4°C 71% Calm Calm -- 29.85 in1010.8 mb - 0.00 in0.0 mm 0.00 in0.0 mm
08:00 PM 76.7°F24.8°C 67.0°F19.4°C 72% Calm Calm -- 29.85 in1010.8 mb - 0.00 in0.0 mm 0.00 in0.0 mm
08:15 PM 76.4°F24.7°C 67.5°F19.7°C 74% Calm Calm -- 29.86 in1011.2 mb - 0.00 in0.0 mm 0.00 in0.0 mm
08:30 PM 75.8°F24.3°C 66.9°F19.4°C 74% Calm Calm -- 29.86 in1011.2 mb - 0.00 in0.0 mm 0.00 in0.0 mm
08:45 PM 75.0°F23.9°C 66.9°F19.4°C 76% Calm Calm -- 29.86 in1011.2 mb - 0.00 in0.0 mm 0.00 in0.0 mm
09:00 PM 74.6°F23.7°C 66.9°F19.4°C 77% Calm Calm -- 29.86 in1011.2 mb - 0.00 in0.0 mm 0.00 in0.0 mm
09:15 PM 73.7°F23.2°C 66.8°F19.3°C 79% Calm Calm -- 29.87 in1011.5 mb - 0.00 in0.0 mm 0.00 in0.0 mm
09:30 PM 73.0°F22.8°C 66.5°F19.2°C 80% Calm Calm -- 29.87 in1011.5 mb - 0.00 in0.0 mm 0.00 in0.0 mm
09:45 PM 72.7°F22.6°C 66.5°F19.2°C 81% Calm Calm -- 29.87 in1011.5 mb - 0.00 in0.0 mm 0.00 in0.0 mm
10:00 PM 72.6°F22.6°C 66.4°F19.1°C 81% Calm Calm -- 29.88 in1011.9 mb - 0.00 in0.0 mm 0.00 in0.0 mm
10:15 PM 72.6°F22.6°C 66.1°F18.9°C 80% Calm Calm -- 29.88 in1011.9 mb - 0.00 in0.0 mm 0.00 in0.0 mm
10:30 PM 72.3°F22.4°C 65.8°F18.8°C 80% Calm Calm -- 29.87 in1011.5 mb - 0.00 in0.0 mm 0.00 in0.0 mm
10:45 PM 71.8°F22.1°C 64.9°F18.3°C 79% Calm Calm -- 29.88 in1011.9 mb - 0.00 in0.0 mm 0.00 in0.0 mm
11:00 PM 71.9°F22.2°C 65.0°F18.3°C 79% Calm Calm -- 29.88 in1011.9 mb - 0.00 in0.0 mm 0.00 in0.0 mm
11:15 PM 72.1°F22.3°C 64.1°F17.8°C 76% Calm Calm -- 29.88 in1011.9 mb - 0.00 in0.0 mm 0.00 in0.0 mm
11:30 PM 72.0°F22.2°C 63.6°F17.6°C 75% Calm Calm -- 29.87 in1011.5 mb - 0.00 in0.0 mm 0.00 in0.0 mm
11:45 PM 71.8°F22.1°C 63.4°F17.4°C 75% Calm Calm -- 29.87 in1011.5 mb - 0.00 in0.0 mm 0.00 in0.0 mm